sensor_id;sensor_type;location;lat;lon;timestamp;temperature;humidity
20242;DHT22;10279;46.388;8.116;2023-02-28T00:00:37;4.60;95.20
20242;DHT22;10279;46.388;8.116;2023-02-28T00:03:05;4.50;95.40
20242;DHT22;10279;46.388;8.116;2023-02-28T00:05:33;4.30;95.70
20242;DHT22;10279;46.388;8.116;2023-02-28T00:08:00;4.20;96.10
20242;DHT22;10279;46.388;8.116;2023-02-28T00:10:29;4.20;96.70
20242;DHT22;10279;46.388;8.116;2023-02-28T00:13:01;4.20;96.50
20242;DHT22;10279;46.388;8.116;2023-02-28T00:15:29;4.20;96.00
20242;DHT22;10279;46.388;8.116;2023-02-28T00:17:56;4.30;95.90
20242;DHT22;10279;46.388;8.116;2023-02-28T00:20:23;4.30;96.00
20242;DHT22;10279;46.388;8.116;2023-02-28T00:22:52;4.30;96.10
20242;DHT22;10279;46.388;8.116;2023-02-28T00:25:25;4.40;96.00
20242;DHT22;10279;46.388;8.116;2023-02-28T00:27:53;4.50;96.10
20242;DHT22;10279;46.388;8.116;2023-02-28T00:30:22;4.50;95.80
20242;DHT22;10279;46.388;8.116;2023-02-28T00:32:50;4.50;96.00
20242;DHT22;10279;46.388;8.116;2023-02-28T00:35:17;4.60;95.80
20242;DHT22;10279;46.388;8.116;2023-02-28T00:37:45;4.60;95.70
20242;DHT22;10279;46.388;8.116;2023-02-28T00:40:12;4.60;95.60
20242;DHT22;10279;46.388;8.116;2023-02-28T00:42:39;4.60;96.00
20242;DHT22;10279;46.388;8.116;2023-02-28T00:45:07;4.60;96.00
20242;DHT22;10279;46.388;8.116;2023-02-28T00:47:35;4.70;95.60
20242;DHT22;10279;46.388;8.116;2023-02-28T00:50:03;4.70;95.50
20242;DHT22;10279;46.388;8.116;2023-02-28T00:52:31;4.60;95.70
20242;DHT22;10279;46.388;8.116;2023-02-28T00:54:58;4.60;95.70
20242;DHT22;10279;46.388;8.116;2023-02-28T00:57:25;4.70;95.80
20242;DHT22;10279;46.388;8.116;2023-02-28T01:05:03;4.50;96.30
20242;DHT22;10279;46.388;8.116;2023-02-28T01:07:30;4.40;96.10
20242;DHT22;10279;46.388;8.116;2023-02-28T01:09:58;4.20;96.60
20242;DHT22;10279;46.388;8.116;2023-02-28T01:12:25;4.20;96.70
20242;DHT22;10279;46.388;8.116;2023-02-28T01:14:52;4.20;96.60
20242;DHT22;10279;46.388;8.116;2023-02-28T01:17:19;4.20;96.60
20242;DHT22;10279;46.388;8.116;2023-02-28T01:19:46;4.20;96.70
20242;DHT22;10279;46.388;8.116;2023-02-28T01:22:13;4.30;96.30
20242;DHT22;10279;46.388;8.116;2023-02-28T01:24:40;4.40;96.00
20242;DHT22;10279;46.388;8.116;2023-02-28T01:27:07;4.40;96.10
20242;DHT22;10279;46.388;8.116;2023-02-28T01:29:34;4.40;96.40
20242;DHT22;10279;46.388;8.116;2023-02-28T01:32:02;4.40;96.40
20242;DHT22;10279;46.388;8.116;2023-02-28T01:34:29;4.50;96.30
20242;DHT22;10279;46.388;8.116;2023-02-28T01:36:56;4.40;96.30
20242;DHT22;10279;46.388;8.116;2023-02-28T01:39:26;4.40;96.50
20242;DHT22;10279;46.388;8.116;2023-02-28T01:41:53;4.40;96.50
20242;DHT22;10279;46.388;8.116;2023-02-28T01:45:00;4.30;96.40
20242;DHT22;10279;46.388;8.116;2023-02-28T01:47:38;4.10;96.80
20242;DHT22;10279;46.388;8.116;2023-02-28T01:50:09;3.60;97.30
20242;DHT22;10279;46.388;8.116;2023-02-28T01:52:38;3.20;98.20
20242;DHT22;10279;46.388;8.116;2023-02-28T01:55:07;3.10;98.50
20242;DHT22;10279;46.388;8.116;2023-02-28T01:57:46;3.10;98.60
20242;DHT22;10279;46.388;8.116;2023-02-28T02:00:17;3.20;98.50
20242;DHT22;10279;46.388;8.116;2023-02-28T02:02:50;3.30;98.10
20242;DHT22;10279;46.388;8.116;2023-02-28T02:05:24;3.20;98.10
20242;DHT22;10279;46.388;8.116;2023-02-28T02:07:54;3.10;98.30
20242;DHT22;10279;46.388;8.116;2023-02-28T02:10:41;3.10;98.40
20242;DHT22;10279;46.388;8.116;2023-02-28T02:13:23;3.20;98.70
20242;DHT22;10279;46.388;8.116;2023-02-28T02:18:34;3.00;98.60
20242;DHT22;10279;46.388;8.116;2023-02-28T02:32:28;2.50;99.60
20242;DHT22;10279;46.388;8.116;2023-02-28T02:38:25;2.90;99.10
20242;DHT22;10279;46.388;8.116;2023-02-28T02:46:33;3.40;98.40
20242;DHT22;10279;46.388;8.116;2023-02-28T02:49:06;3.50;98.00
20242;DHT22;10279;46.388;8.116;2023-02-28T02:51:35;3.60;97.90
20242;DHT22;10279;46.388;8.116;2023-02-28T02:56:45;3.70;97.70
20242;DHT22;10279;46.388;8.116;2023-02-28T02:59:17;3.80;97.40
20242;DHT22;10279;46.388;8.116;2023-02-28T03:02:01;3.80;97.60
20242;DHT22;10279;46.388;8.116;2023-02-28T03:04:34;3.80;97.40
20242;DHT22;10279;46.388;8.116;2023-02-28T03:07:01;3.90;97.10
20242;DHT22;10279;46.388;8.116;2023-02-28T03:09:34;3.80;97.00
20242;DHT22;10279;46.388;8.116;2023-02-28T03:12:04;3.80;97.10
20242;DHT22;10279;46.388;8.116;2023-02-28T03:20:01;3.70;97.70
20242;DHT22;10279;46.388;8.116;2023-02-28T03:23:26;3.70;97.40
20242;DHT22;10279;46.388;8.116;2023-02-28T03:25:47;3.70;97.40
20242;DHT22;10279;46.388;8.116;2023-02-28T03:31:17;3.70;97.60
20242;DHT22;10279;46.388;8.116;2023-02-28T03:36:29;3.70;97.50
20242;DHT22;10279;46.388;8.116;2023-02-28T03:39:07;3.70;97.50
20242;DHT22;10279;46.388;8.116;2023-02-28T03:41:56;3.80;97.30
20242;DHT22;10279;46.388;8.116;2023-02-28T03:44:32;3.80;97.50
20242;DHT22;10279;46.388;8.116;2023-02-28T03:47:14;3.80;97.30
20242;DHT22;10279;46.388;8.116;2023-02-28T03:50:03;3.80;97.00
20242;DHT22;10279;46.388;8.116;2023-02-28T03:52:42;3.80;97.30
20242;DHT22;10279;46.388;8.116;2023-02-28T03:55:13;3.70;97.60
20242;DHT22;10279;46.388;8.116;2023-02-28T03:58:43;3.70;97.60
20242;DHT22;10279;46.388;8.116;2023-02-28T04:01:05;3.80;97.70
20242;DHT22;10279;46.388;8.116;2023-02-28T04:03:38;3.90;97.30
20242;DHT22;10279;46.388;8.116;2023-02-28T04:06:08;3.90;97.50
20242;DHT22;10279;46.388;8.116;2023-02-28T04:08:40;4.00;97.60
20242;DHT22;10279;46.388;8.116;2023-02-28T04:11:34;3.90;97.60
20242;DHT22;10279;46.388;8.116;2023-02-28T04:14:05;3.80;97.90
20242;DHT22;10279;46.388;8.116;2023-02-28T04:16:34;3.70;97.70
20242;DHT22;10279;46.388;8.116;2023-02-28T04:19:03;3.70;97.40
20242;DHT22;10279;46.388;8.116;2023-02-28T04:24:02;3.90;97.40
20242;DHT22;10279;46.388;8.116;2023-02-28T04:26:31;4.00;97.30
20242;DHT22;10279;46.388;8.116;2023-02-28T04:28:59;4.00;97.30
20242;DHT22;10279;46.388;8.116;2023-02-28T04:31:26;4.00;97.30
20242;DHT22;10279;46.388;8.116;2023-02-28T04:33:54;4.00;97.10
20242;DHT22;10279;46.388;8.116;2023-02-28T04:36:21;3.90;96.80
20242;DHT22;10279;46.388;8.116;2023-02-28T04:38:50;4.00;97.00
20242;DHT22;10279;46.388;8.116;2023-02-28T04:41:17;4.00;96.90
20242;DHT22;10279;46.388;8.116;2023-02-28T04:43:44;4.00;97.10
20242;DHT22;10279;46.388;8.116;2023-02-28T04:46:11;4.00;97.10
20242;DHT22;10279;46.388;8.116;2023-02-28T04:48:40;4.10;97.20
20242;DHT22;10279;46.388;8.116;2023-02-28T04:51:13;4.10;97.10
20242;DHT22;10279;46.388;8.116;2023-02-28T04:53:41;4.10;97.10
20242;DHT22;10279;46.388;8.116;2023-02-28T04:56:12;4.10;97.10
20242;DHT22;10279;46.388;8.116;2023-02-28T04:58:39;4.00;97.30
20242;DHT22;10279;46.388;8.116;2023-02-28T05:01:22;3.90;97.20
20242;DHT22;10279;46.388;8.116;2023-02-28T05:03:50;3.90;97.10
20242;DHT22;10279;46.388;8.116;2023-02-28T05:06:19;3.90;96.80
20242;DHT22;10279;46.388;8.116;2023-02-28T05:08:47;4.00;96.70
20242;DHT22;10279;46.388;8.116;2023-02-28T05:13:48;4.00;96.70
20242;DHT22;10279;46.388;8.116;2023-02-28T05:16:15;4.10;96.90
20242;DHT22;10279;46.388;8.116;2023-02-28T05:18:43;4.10;96.80
20242;DHT22;10279;46.388;8.116;2023-02-28T05:23:55;4.20;96.80
20242;DHT22;10279;46.388;8.116;2023-02-28T05:26:23;4.10;96.70
20242;DHT22;10279;46.388;8.116;2023-02-28T05:28:51;4.00;96.60
20242;DHT22;10279;46.388;8.116;2023-02-28T05:31:18;3.90;96.60
20242;DHT22;10279;46.388;8.116;2023-02-28T05:33:45;4.00;96.10
20242;DHT22;10279;46.388;8.116;2023-02-28T05:36:13;4.00;96.20
20242;DHT22;10279;46.388;8.116;2023-02-28T05:38:41;4.10;96.00
20242;DHT22;10279;46.388;8.116;2023-02-28T05:41:10;4.20;96.10
20242;DHT22;10279;46.388;8.116;2023-02-28T05:43:37;4.30;96.10
20242;DHT22;10279;46.388;8.116;2023-02-28T05:46:06;4.40;95.90
20242;DHT22;10279;46.388;8.116;2023-02-28T05:48:35;4.40;96.00
20242;DHT22;10279;46.388;8.116;2023-02-28T05:51:07;4.30;95.80
20242;DHT22;10279;46.388;8.116;2023-02-28T05:53:35;4.40;95.90
20242;DHT22;10279;46.388;8.116;2023-02-28T05:56:03;4.40;95.50
20242;DHT22;10279;46.388;8.116;2023-02-28T05:58:30;4.40;95.30
20242;DHT22;10279;46.388;8.116;2023-02-28T06:00:59;4.40;95.50
20242;DHT22;10279;46.388;8.116;2023-02-28T06:03:27;4.40;95.20
20242;DHT22;10279;46.388;8.116;2023-02-28T06:05:54;4.40;95.40
20242;DHT22;10279;46.388;8.116;2023-02-28T06:08:21;4.30;95.40
20242;DHT22;10279;46.388;8.116;2023-02-28T06:10:48;4.30;95.70
20242;DHT22;10279;46.388;8.116;2023-02-28T06:13:15;4.20;95.70
20242;DHT22;10279;46.388;8.116;2023-02-28T06:15:42;4.20;95.50
20242;DHT22;10279;46.388;8.116;2023-02-28T06:18:10;4.20;95.00
20242;DHT22;10279;46.388;8.116;2023-02-28T06:20:37;4.20;94.80
20242;DHT22;10279;46.388;8.116;2023-02-28T06:23:07;4.30;94.70
20242;DHT22;10279;46.388;8.116;2023-02-28T06:25:34;4.40;94.80
20242;DHT22;10279;46.388;8.116;2023-02-28T06:28:01;4.40;94.90
20242;DHT22;10279;46.388;8.116;2023-02-28T06:30:28;4.40;94.90
20242;DHT22;10279;46.388;8.116;2023-02-28T06:32:56;4.40;95.30
20242;DHT22;10279;46.388;8.116;2023-02-28T06:35:23;4.40;95.10
20242;DHT22;10279;46.388;8.116;2023-02-28T06:37:51;4.40;95.30
20242;DHT22;10279;46.388;8.116;2023-02-28T06:40:18;4.40;95.10
20242;DHT22;10279;46.388;8.116;2023-02-28T06:42:45;4.40;95.00
20242;DHT22;10279;46.388;8.116;2023-02-28T06:45:13;4.50;94.60
20242;DHT22;10279;46.388;8.116;2023-02-28T06:47:41;4.50;94.60
20242;DHT22;10279;46.388;8.116;2023-02-28T06:50:11;4.60;94.00
20242;DHT22;10279;46.388;8.116;2023-02-28T06:52:38;4.60;94.30
20242;DHT22;10279;46.388;8.116;2023-02-28T06:55:07;4.70;94.50
20242;DHT22;10279;46.388;8.116;2023-02-28T06:57:35;4.70;94.30
20242;DHT22;10279;46.388;8.116;2023-02-28T07:00:09;4.80;94.20
20242;DHT22;10279;46.388;8.116;2023-02-28T07:02:37;4.80;94.20
20242;DHT22;10279;46.388;8.116;2023-02-28T07:05:07;4.80;94.50
20242;DHT22;10279;46.388;8.116;2023-02-28T07:07:34;4.80;94.20
20242;DHT22;10279;46.388;8.116;2023-02-28T07:10:05;4.80;94.10
20242;DHT22;10279;46.388;8.116;2023-02-28T07:12:32;4.80;94.10
20242;DHT22;10279;46.388;8.116;2023-02-28T07:14:59;4.90;93.70
20242;DHT22;10279;46.388;8.116;2023-02-28T07:17:26;4.90;93.70
20242;DHT22;10279;46.388;8.116;2023-02-28T07:19:53;4.90;93.40
20242;DHT22;10279;46.388;8.116;2023-02-28T07:22:20;4.90;93.60
20242;DHT22;10279;46.388;8.116;2023-02-28T07:24:47;4.90;93.80
20242;DHT22;10279;46.388;8.116;2023-02-28T07:27:15;4.90;93.70
20242;DHT22;10279;46.388;8.116;2023-02-28T07:29:50;4.90;94.20
20242;DHT22;10279;46.388;8.116;2023-02-28T07:32:18;4.90;93.60
20242;DHT22;10279;46.388;8.116;2023-02-28T07:34:45;4.90;93.70
20242;DHT22;10279;46.388;8.116;2023-02-28T07:37:12;4.80;94.00
20242;DHT22;10279;46.388;8.116;2023-02-28T07:39:39;4.90;94.10
20242;DHT22;10279;46.388;8.116;2023-02-28T07:42:09;4.90;93.80
20242;DHT22;10279;46.388;8.116;2023-02-28T07:44:40;4.80;93.50
20242;DHT22;10279;46.388;8.116;2023-02-28T07:47:10;4.90;93.60
20242;DHT22;10279;46.388;8.116;2023-02-28T07:49:38;4.90;93.50
20242;DHT22;10279;46.388;8.116;2023-02-28T07:52:06;5.00;93.30
20242;DHT22;10279;46.388;8.116;2023-02-28T07:54:34;5.10;93.20
20242;DHT22;10279;46.388;8.116;2023-02-28T07:57:01;5.20;93.10
20242;DHT22;10279;46.388;8.116;2023-02-28T07:59:28;5.30;93.20
20242;DHT22;10279;46.388;8.116;2023-02-28T08:01:58;5.40;92.70
20242;DHT22;10279;46.388;8.116;2023-02-28T08:04:26;5.50;92.50
20242;DHT22;10279;46.388;8.116;2023-02-28T08:06:53;5.70;92.50
20242;DHT22;10279;46.388;8.116;2023-02-28T08:09:20;5.80;91.80
20242;DHT22;10279;46.388;8.116;2023-02-28T08:11:47;5.90;91.70
20242;DHT22;10279;46.388;8.116;2023-02-28T08:14:15;6.00;91.80
20242;DHT22;10279;46.388;8.116;2023-02-28T08:16:42;6.00;91.40
20242;DHT22;10279;46.388;8.116;2023-02-28T08:19:09;6.10;91.40
20242;DHT22;10279;46.388;8.116;2023-02-28T08:21:37;6.20;91.80
20242;DHT22;10279;46.388;8.116;2023-02-28T08:24:04;6.30;91.10
20242;DHT22;10279;46.388;8.116;2023-02-28T08:26:31;6.30;90.60
20242;DHT22;10279;46.388;8.116;2023-02-28T08:28:59;6.40;90.40
20242;DHT22;10279;46.388;8.116;2023-02-28T08:31:27;6.40;91.20
20242;DHT22;10279;46.388;8.116;2023-02-28T08:33:55;6.40;90.60
20242;DHT22;10279;46.388;8.116;2023-02-28T08:36:26;6.40;90.50
20242;DHT22;10279;46.388;8.116;2023-02-28T08:38:56;6.40;90.20
20242;DHT22;10279;46.388;8.116;2023-02-28T08:41:23;6.50;90.50
20242;DHT22;10279;46.388;8.116;2023-02-28T08:43:51;6.50;90.30
20242;DHT22;10279;46.388;8.116;2023-02-28T08:46:18;6.50;89.90
20242;DHT22;10279;46.388;8.116;2023-02-28T08:48:46;6.60;89.90
20242;DHT22;10279;46.388;8.116;2023-02-28T08:51:15;6.60;89.80
20242;DHT22;10279;46.388;8.116;2023-02-28T08:53:45;6.60;89.20
20242;DHT22;10279;46.388;8.116;2023-02-28T08:56:14;6.60;88.90
20242;DHT22;10279;46.388;8.116;2023-02-28T08:58:44;6.60;89.20
20242;DHT22;10279;46.388;8.116;2023-02-28T09:01:20;6.60;89.30
20242;DHT22;10279;46.388;8.116;2023-02-28T09:03:50;6.60;89.50
20242;DHT22;10279;46.388;8.116;2023-02-28T09:06:19;6.60;88.70
20242;DHT22;10279;46.388;8.116;2023-02-28T09:08:46;6.60;88.10
20242;DHT22;10279;46.388;8.116;2023-02-28T09:11:14;6.70;88.60
20242;DHT22;10279;46.388;8.116;2023-02-28T09:13:42;6.80;86.80
20242;DHT22;10279;46.388;8.116;2023-02-28T09:16:13;6.90;86.10
20242;DHT22;10279;46.388;8.116;2023-02-28T09:18:44;7.00;85.90
20242;DHT22;10279;46.388;8.116;2023-02-28T09:21:14;7.10;84.10
20242;DHT22;10279;46.388;8.116;2023-02-28T09:23:46;7.20;84.60
20242;DHT22;10279;46.388;8.116;2023-02-28T09:28:42;7.30;81.40
20242;DHT22;10279;46.388;8.116;2023-02-28T09:31:17;7.40;82.00
20242;DHT22;10279;46.388;8.116;2023-02-28T09:33:49;7.50;82.20
20242;DHT22;10279;46.388;8.116;2023-02-28T09:36:17;7.60;80.60
20242;DHT22;10279;46.388;8.116;2023-02-28T09:38:45;7.70;78.30
20242;DHT22;10279;46.388;8.116;2023-02-28T09:41:21;7.80;79.30
20242;DHT22;10279;46.388;8.116;2023-02-28T09:43:57;7.90;77.70
20242;DHT22;10279;46.388;8.116;2023-02-28T09:46:39;8.00;76.90
20242;DHT22;10279;46.388;8.116;2023-02-28T09:49:25;8.00;75.00
20242;DHT22;10279;46.388;8.116;2023-02-28T09:52:03;8.00;77.50
20242;DHT22;10279;46.388;8.116;2023-02-28T09:54:32;8.00;76.10
20242;DHT22;10279;46.388;8.116;2023-02-28T09:57:19;8.00;76.70
20242;DHT22;10279;46.388;8.116;2023-02-28T10:00:43;8.00;73.60
20242;DHT22;10279;46.388;8.116;2023-02-28T10:05:43;8.20;75.00
20242;DHT22;10279;46.388;8.116;2023-02-28T10:08:19;8.10;73.10
20242;DHT22;10279;46.388;8.116;2023-02-28T10:10:57;8.10;74.30
20242;DHT22;10279;46.388;8.116;2023-02-28T10:14:16;8.10;73.60
20242;DHT22;10279;46.388;8.116;2023-02-28T10:22:32;7.80;73.80
20242;DHT22;10279;46.388;8.116;2023-02-28T10:25:04;7.80;72.80
20242;DHT22;10279;46.388;8.116;2023-02-28T10:27:33;8.00;74.80
20242;DHT22;10279;46.388;8.116;2023-02-28T10:30:01;8.20;72.40
20242;DHT22;10279;46.388;8.116;2023-02-28T10:32:34;8.10;72.60
20242;DHT22;10279;46.388;8.116;2023-02-28T10:35:18;7.40;72.80
20242;DHT22;10279;46.388;8.116;2023-02-28T10:37:51;7.20;75.40
20242;DHT22;10279;46.388;8.116;2023-02-28T10:43:01;7.50;75.00
20242;DHT22;10279;46.388;8.116;2023-02-28T10:45:33;7.80;77.80
20242;DHT22;10279;46.388;8.116;2023-02-28T10:48:02;8.00;74.10
20242;DHT22;10279;46.388;8.116;2023-02-28T10:50:39;8.10;74.10
20242;DHT22;10279;46.388;8.116;2023-02-28T11:01:35;8.50;76.10
20242;DHT22;10279;46.388;8.116;2023-02-28T11:04:18;8.80;73.70
20242;DHT22;10279;46.388;8.116;2023-02-28T11:06:46;8.50;72.80
20242;DHT22;10279;46.388;8.116;2023-02-28T11:09:35;8.00;74.80
20242;DHT22;10279;46.388;8.116;2023-02-28T11:12:05;8.00;75.30
20242;DHT22;10279;46.388;8.116;2023-02-28T11:14:46;7.90;74.70
20242;DHT22;10279;46.388;8.116;2023-02-28T11:17:23;7.90;76.70
20242;DHT22;10279;46.388;8.116;2023-02-28T11:20:03;8.10;82.50
20242;DHT22;10279;46.388;8.116;2023-02-28T11:22:35;8.10;77.20
20242;DHT22;10279;46.388;8.116;2023-02-28T11:25:25;8.10;78.80
20242;DHT22;10279;46.388;8.116;2023-02-28T11:27:58;8.30;76.50
20242;DHT22;10279;46.388;8.116;2023-02-28T11:30:39;8.40;77.00
20242;DHT22;10279;46.388;8.116;2023-02-28T11:33:29;8.70;77.70
20242;DHT22;10279;46.388;8.116;2023-02-28T11:36:03;9.00;75.20
20242;DHT22;10279;46.388;8.116;2023-02-28T11:38:33;8.90;74.30
20242;DHT22;10279;46.388;8.116;2023-02-28T11:41:05;9.00;74.30
20242;DHT22;10279;46.388;8.116;2023-02-28T11:43:53;9.10;76.10
20242;DHT22;10279;46.388;8.116;2023-02-28T11:46:40;9.30;74.30
20242;DHT22;10279;46.388;8.116;2023-02-28T11:57:32;9.90;75.40
20242;DHT22;10279;46.388;8.116;2023-02-28T12:16:20;9.50;72.60
20242;DHT22;10279;46.388;8.116;2023-02-28T12:19:34;9.70;73.40
20242;DHT22;10279;46.388;8.116;2023-02-28T12:24:48;9.70;72.30
20242;DHT22;10279;46.388;8.116;2023-02-28T12:27:21;9.50;72.20
20242;DHT22;10279;46.388;8.116;2023-02-28T12:30:28;9.20;71.30
20242;DHT22;10279;46.388;8.116;2023-02-28T12:35:37;9.10;75.00
20242;DHT22;10279;46.388;8.116;2023-02-28T12:38:12;9.20;73.50
20242;DHT22;10279;46.388;8.116;2023-02-28T12:40:50;9.20;75.30
20242;DHT22;10279;46.388;8.116;2023-02-28T12:43:21;9.40;74.90
20242;DHT22;10279;46.388;8.116;2023-02-28T12:45:58;10.00;73.30
20242;DHT22;10279;46.388;8.116;2023-02-28T12:48:37;10.50;72.10
20242;DHT22;10279;46.388;8.116;2023-02-28T12:51:06;10.80;70.50
20242;DHT22;10279;46.388;8.116;2023-02-28T12:56:59;10.60;70.00
20242;DHT22;10279;46.388;8.116;2023-02-28T13:10:24;11.20;70.40
20242;DHT22;10279;46.388;8.116;2023-02-28T13:12:54;11.50;68.90
20242;DHT22;10279;46.388;8.116;2023-02-28T13:15:25;11.40;70.10
20242;DHT22;10279;46.388;8.116;2023-02-28T13:17:56;11.20;71.30
20242;DHT22;10279;46.388;8.116;2023-02-28T13:20:36;11.30;70.20
20242;DHT22;10279;46.388;8.116;2023-02-28T13:23:04;11.40;70.10
20242;DHT22;10279;46.388;8.116;2023-02-28T13:25:52;11.30;68.10
20242;DHT22;10279;46.388;8.116;2023-02-28T13:28:56;11.00;70.70
20242;DHT22;10279;46.388;8.116;2023-02-28T13:31:25;11.10;68.10
20242;DHT22;10279;46.388;8.116;2023-02-28T13:36:30;11.50;69.40
20242;DHT22;10279;46.388;8.116;2023-02-28T13:39:03;11.60;69.60
20242;DHT22;10279;46.388;8.116;2023-02-28T13:41:49;11.30;68.80
20242;DHT22;10279;46.388;8.116;2023-02-28T13:44:19;11.10;69.20
20242;DHT22;10279;46.388;8.116;2023-02-28T13:51:51;11.20;69.80
20242;DHT22;10279;46.388;8.116;2023-02-28T14:05:27;12.30;67.90
20242;DHT22;10279;46.388;8.116;2023-02-28T14:07:58;12.20;68.10
20242;DHT22;10279;46.388;8.116;2023-02-28T14:10:32;12.20;68.20
20242;DHT22;10279;46.388;8.116;2023-02-28T14:13:12;12.10;68.10
20242;DHT22;10279;46.388;8.116;2023-02-28T14:15:57;12.10;70.60
20242;DHT22;10279;46.388;8.116;2023-02-28T14:18:32;11.90;68.90
20242;DHT22;10279;46.388;8.116;2023-02-28T14:21:29;12.10;67.70
20242;DHT22;10279;46.388;8.116;2023-02-28T14:38:51;10.10;72.30
20242;DHT22;10279;46.388;8.116;2023-02-28T14:43:51;10.20;72.00
20242;DHT22;10279;46.388;8.116;2023-02-28T14:46:20;10.30;69.90
20242;DHT22;10279;46.388;8.116;2023-02-28T14:48:49;10.40;72.50
20242;DHT22;10279;46.388;8.116;2023-02-28T14:51:24;10.20;71.40
20242;DHT22;10279;46.388;8.116;2023-02-28T14:53:58;10.10;70.40
20242;DHT22;10279;46.388;8.116;2023-02-28T14:56:34;10.10;72.40
20242;DHT22;10279;46.388;8.116;2023-02-28T14:59:01;10.20;72.60
20242;DHT22;10279;46.388;8.116;2023-02-28T15:01:28;10.20;70.90
20242;DHT22;10279;46.388;8.116;2023-02-28T15:04:02;10.20;73.80
20242;DHT22;10279;46.388;8.116;2023-02-28T15:06:30;10.20;72.50
20242;DHT22;10279;46.388;8.116;2023-02-28T15:09:17;10.40;71.90
20242;DHT22;10279;46.388;8.116;2023-02-28T15:11:47;10.50;70.50
20242;DHT22;10279;46.388;8.116;2023-02-28T15:14:19;10.50;71.70
20242;DHT22;10279;46.388;8.116;2023-02-28T15:16:51;10.50;71.10
20242;DHT22;10279;46.388;8.116;2023-02-28T15:19:30;10.40;70.10
20242;DHT22;10279;46.388;8.116;2023-02-28T15:22:12;10.40;71.50
20242;DHT22;10279;46.388;8.116;2023-02-28T15:24:50;10.50;70.40
20242;DHT22;10279;46.388;8.116;2023-02-28T15:27:29;10.60;70.80
20242;DHT22;10279;46.388;8.116;2023-02-28T15:30:04;10.70;71.70
20242;DHT22;10279;46.388;8.116;2023-02-28T15:32:35;10.60;70.80
20242;DHT22;10279;46.388;8.116;2023-02-28T15:38:26;10.50;69.90
20242;DHT22;10279;46.388;8.116;2023-02-28T15:40:55;10.30;71.00
20242;DHT22;10279;46.388;8.116;2023-02-28T15:43:29;10.00;71.50
20242;DHT22;10279;46.388;8.116;2023-02-28T15:46:11;10.00;72.10
20242;DHT22;10279;46.388;8.116;2023-02-28T15:48:53;9.80;72.40
20242;DHT22;10279;46.388;8.116;2023-02-28T15:51:33;9.70;73.50
20242;DHT22;10279;46.388;8.116;2023-02-28T15:54:05;9.50;72.00
20242;DHT22;10279;46.388;8.116;2023-02-28T15:56:42;9.20;72.20
20242;DHT22;10279;46.388;8.116;2023-02-28T15:59:29;9.10;72.50
20242;DHT22;10279;46.388;8.116;2023-02-28T16:02:32;9.10;72.90
20242;DHT22;10279;46.388;8.116;2023-02-28T16:07:42;9.10;73.50
20242;DHT22;10279;46.388;8.116;2023-02-28T16:10:12;9.20;74.10
20242;DHT22;10279;46.388;8.116;2023-02-28T16:12:42;9.30;72.40
20242;DHT22;10279;46.388;8.116;2023-02-28T16:15:24;9.30;73.30
20242;DHT22;10279;46.388;8.116;2023-02-28T16:17:53;9.40;72.70
20242;DHT22;10279;46.388;8.116;2023-02-28T16:20:22;9.30;73.10
20242;DHT22;10279;46.388;8.116;2023-02-28T16:22:50;9.40;73.50
20242;DHT22;10279;46.388;8.116;2023-02-28T16:25:20;9.40;72.60
20242;DHT22;10279;46.388;8.116;2023-02-28T16:27:49;9.30;74.10
20242;DHT22;10279;46.388;8.116;2023-02-28T16:30:25;9.40;75.20
20242;DHT22;10279;46.388;8.116;2023-02-28T16:32:54;9.40;74.30
20242;DHT22;10279;46.388;8.116;2023-02-28T16:35:22;9.30;74.90
20242;DHT22;10279;46.388;8.116;2023-02-28T16:37:53;9.30;76.70
20242;DHT22;10279;46.388;8.116;2023-02-28T16:40:24;9.30;76.60
20242;DHT22;10279;46.388;8.116;2023-02-28T16:42:55;9.20;77.70
20242;DHT22;10279;46.388;8.116;2023-02-28T16:45:27;9.20;77.60
20242;DHT22;10279;46.388;8.116;2023-02-28T16:47:55;9.10;76.30
20242;DHT22;10279;46.388;8.116;2023-02-28T16:50:27;8.90;74.50
20242;DHT22;10279;46.388;8.116;2023-02-28T16:52:55;8.80;76.60
20242;DHT22;10279;46.388;8.116;2023-02-28T16:55:24;8.70;76.20
20242;DHT22;10279;46.388;8.116;2023-02-28T16:57:54;8.70;77.40
20242;DHT22;10279;46.388;8.116;2023-02-28T17:00:22;8.70;78.30
20242;DHT22;10279;46.388;8.116;2023-02-28T17:02:50;8.60;77.80
20242;DHT22;10279;46.388;8.116;2023-02-28T17:05:17;8.60;78.20
20242;DHT22;10279;46.388;8.116;2023-02-28T17:07:46;8.50;78.70
20242;DHT22;10279;46.388;8.116;2023-02-28T17:10:25;8.50;78.30
20242;DHT22;10279;46.388;8.116;2023-02-28T17:12:53;8.50;80.10
20242;DHT22;10279;46.388;8.116;2023-02-28T17:15:29;8.50;79.40
20242;DHT22;10279;46.388;8.116;2023-02-28T17:17:58;8.40;78.70
20242;DHT22;10279;46.388;8.116;2023-02-28T17:20:25;8.20;80.10
20242;DHT22;10279;46.388;8.116;2023-02-28T17:22:54;8.10;80.90
20242;DHT22;10279;46.388;8.116;2023-02-28T17:25:22;8.00;80.60
20242;DHT22;10279;46.388;8.116;2023-02-28T17:27:50;7.90;81.00
20242;DHT22;10279;46.388;8.116;2023-02-28T17:30:25;7.90;81.30
20242;DHT22;10279;46.388;8.116;2023-02-28T17:32:55;7.90;81.90
20242;DHT22;10279;46.388;8.116;2023-02-28T17:35:23;7.90;82.40
20242;DHT22;10279;46.388;8.116;2023-02-28T17:37:50;7.90;82.70
20242;DHT22;10279;46.388;8.116;2023-02-28T17:40:20;7.80;82.10
20242;DHT22;10279;46.388;8.116;2023-02-28T17:42:47;7.70;81.90
20242;DHT22;10279;46.388;8.116;2023-02-28T17:45:15;7.70;82.00
20242;DHT22;10279;46.388;8.116;2023-02-28T17:47:45;7.70;82.10
20242;DHT22;10279;46.388;8.116;2023-02-28T17:50:16;7.70;83.10
20242;DHT22;10279;46.388;8.116;2023-02-28T17:52:43;7.60;83.20
20242;DHT22;10279;46.388;8.116;2023-02-28T17:55:11;7.50;82.30
20242;DHT22;10279;46.388;8.116;2023-02-28T17:57:39;7.30;82.70
20242;DHT22;10279;46.388;8.116;2023-02-28T18:00:12;7.30;82.30
20242;DHT22;10279;46.388;8.116;2023-02-28T18:02:40;7.20;82.50
20242;DHT22;10279;46.388;8.116;2023-02-28T18:05:08;7.20;82.50
20242;DHT22;10279;46.388;8.116;2023-02-28T18:07:37;7.10;82.60
20242;DHT22;10279;46.388;8.116;2023-02-28T18:10:06;7.00;82.70
20242;DHT22;10279;46.388;8.116;2023-02-28T18:12:34;6.90;83.20
20242;DHT22;10279;46.388;8.116;2023-02-28T18:15:01;6.90;83.20
20242;DHT22;10279;46.388;8.116;2023-02-28T18:17:28;6.90;83.70
20242;DHT22;10279;46.388;8.116;2023-02-28T18:19:55;7.00;83.40
20242;DHT22;10279;46.388;8.116;2023-02-28T18:22:22;7.00;83.20
20242;DHT22;10279;46.388;8.116;2023-02-28T18:24:49;6.90;83.70
20242;DHT22;10279;46.388;8.116;2023-02-28T18:27:17;6.90;84.00
20242;DHT22;10279;46.388;8.116;2023-02-28T18:29:44;6.80;83.90
20242;DHT22;10279;46.388;8.116;2023-02-28T18:32:11;6.80;84.70
20242;DHT22;10279;46.388;8.116;2023-02-28T18:34:38;6.80;83.80
20242;DHT22;10279;46.388;8.116;2023-02-28T18:37:05;6.80;83.40
20242;DHT22;10279;46.388;8.116;2023-02-28T18:39:32;6.80;83.40
20242;DHT22;10279;46.388;8.116;2023-02-28T18:41:59;6.90;84.50
20242;DHT22;10279;46.388;8.116;2023-02-28T18:44:26;6.90;84.60
20242;DHT22;10279;46.388;8.116;2023-02-28T18:46:53;6.90;84.70
20242;DHT22;10279;46.388;8.116;2023-02-28T18:49:21;6.90;85.10
20242;DHT22;10279;46.388;8.116;2023-02-28T18:51:48;6.90;85.20